Terminal Aerodrome Forecast
Issued by NWS Shreveport, LA

Home | Current Version | Previous Version | Text Only | Print | Product List | Glossary On
Versions: 1 2 3 4 5 6 7 8 9 10 11 12 13
000
FTUS44 KSHV 300500
TAFTXK
TAF
KTXK 300525Z 3006/3106 12003KT P6SM BKN250
     FM300900 13003KT P6SM BKN150 BKN250
     FM301500 15006KT P6SM BKN100 BKN250
     FM301700 11005KT P6SM FEW040 SCT080 BKN100
     FM301900 10005KT P6SM -RA FEW045 BKN090
     FM310100 09005KT P6SM BKN110=

USA.gov is the U.S. government's official web portal to all federal, state and local government web resources and services.